Time;durP1;ratioP1;P1;durP2;ratioP2;P2;SDS_P1;SDS_P2;PMS_P1;PMS_P2;Temp;Humidity;BMP_temperature;BMP_pressure;BME280_temperature;BME280_humidity;BME280_pressure;Samples;Min_cycle;Max_cycle;Signal;HPM_P1;HPM_P2
2022/08/21 00:00:41;;;;;;;7.97;3.80;;;;;;;16.23;78.88;101543.28;5220985;28;20022;-71
2022/08/21 00:03:12;;;;;;;9.83;3.80;;;;;;;16.26;78.33;101544.97;5203802;28;20029;-71
2022/08/21 00:05:49;;;;;;;9.05;3.60;;;;;;;16.40;78.57;101540.25;5220818;28;20061;-71
2022/08/21 00:08:21;;;;;;;6.68;3.78;;;;;;;16.31;78.68;101542.22;5221231;28;20032;-71
2022/08/21 00:10:52;;;;;;;9.07;3.23;;;;;;;16.36;78.38;101533.31;5220805;28;20038;-71
2022/08/21 00:13:23;;;;;;;7.60;3.50;;;;;;;16.39;78.37;101535.03;5203465;28;20041;-71
2022/08/21 00:15:55;;;;;;;10.07;4.33;;;;;;;16.20;78.77;101535.47;5220545;28;20049;-71
2022/08/21 00:18:26;;;;;;;7.23;3.77;;;;;;;16.32;78.69;101530.81;5220831;28;20072;-71
2022/08/21 00:20:58;;;;;;;8.13;3.80;;;;;;;16.33;78.86;101530.75;5203463;28;20030;-71
2022/08/21 00:23:29;;;;;;;8.30;3.67;;;;;;;16.33;78.58;101533.41;5220331;28;20037;-70
2022/08/21 00:26:01;;;;;;;9.40;3.97;;;;;;;16.33;78.61;101538.66;5203042;28;20025;-70
2022/08/21 00:28:33;;;;;;;14.85;3.83;;;;;;;16.14;78.78;101540.00;5220446;28;20032;-70
2022/08/21 00:31:05;;;;;;;12.73;4.53;;;;;;;16.22;78.84;101533.66;5220421;28;20088;-70
2022/08/21 00:33:36;;;;;;;11.07;4.27;;;;;;;16.25;79.00;101529.25;5223514;28;20029;-71
2022/08/21 00:36:08;;;;;;;8.53;3.83;;;;;;;16.11;79.21;101532.19;5225274;28;20265;-70
2022/08/21 00:38:40;;;;;;;8.40;4.20;;;;;;;16.04;79.35;101521.81;5224784;28;20033;-71
2022/08/21 00:41:11;;;;;;;8.60;4.32;;;;;;;16.11;79.29;101532.19;5225407;28;20088;-71
2022/08/21 00:43:43;;;;;;;7.87;4.70;;;;;;;15.87;80.06;101521.34;5224495;28;20030;-71
2022/08/21 00:46:14;;;;;;;12.30;4.60;;;;;;;15.80;79.96;101519.75;5206764;28;20061;-71
2022/08/21 00:48:45;;;;;;;10.17;4.90;;;;;;;16.00;79.93;101522.81;5224272;28;20406;-71
2022/08/21 00:51:22;;;;;;;10.97;4.07;;;;;;;15.75;80.49;101525.09;5224609;28;20498;-71
2022/08/21 00:53:59;;;;;;;10.85;4.53;;;;;;;15.89;80.21;101522.19;5224401;28;20037;-70
2022/08/21 00:56:31;;;;;;;6.93;4.18;;;;;;;15.63;80.52;101520.97;5223946;28;20037;-70
2022/08/21 00:59:02;;;;;;;8.50;4.27;;;;;;;15.75;80.89;101526.88;5223938;28;20033;-70
2022/08/21 01:01:34;;;;;;;7.87;4.83;;;;;;;15.61;80.86;101522.75;5224416;28;20038;-70
2022/08/21 01:04:05;;;;;;;11.70;5.10;;;;;;;15.73;80.73;101526.91;5223797;28;20038;-70
2022/08/21 01:06:37;;;;;;;8.33;4.13;;;;;;;15.72;80.88;101521.69;5223665;28;20061;-70
2022/08/21 01:09:08;;;;;;;9.67;5.33;;;;;;;15.75;80.89;101527.72;5223826;28;20056;-70
2022/08/21 01:11:42;;;;;;;9.40;4.47;;;;;;;15.68;81.33;101523.47;5223823;28;20033;-70
2022/08/21 01:14:14;;;;;;;9.18;4.43;;;;;;;15.39;81.70;101526.75;5224623;28;20125;-70
2022/08/21 01:16:49;;;;;;;10.82;4.47;;;;;;;15.42;81.66;101529.31;5223902;28;20038;-70
2022/08/21 01:19:22;;;;;;;8.18;4.38;;;;;;;15.43;81.75;101529.28;5223818;28;20410;-70
2022/08/21 01:21:54;;;;;;;7.18;5.18;;;;;;;15.43;81.91;101520.53;5223792;28;20026;-70
2022/08/21 01:24:25;;;;;;;9.98;5.07;;;;;;;15.56;81.80;101527.25;5224429;28;20474;-70
2022/08/21 01:26:58;;;;;;;9.00;4.87;;;;;;;15.54;81.82;101525.56;5223663;28;20038;-70
2022/08/21 01:29:34;;;;;;;8.60;4.95;;;;;;;15.52;81.83;101514.22;5223307;28;20033;-70
2022/08/21 01:32:10;;;;;;;11.93;5.03;;;;;;;15.32;81.99;101502.38;5224155;28;20033;-70
2022/08/21 01:34:44;;;;;;;8.98;5.10;;;;;;;15.25;82.45;101516.53;5223497;28;20030;-70
2022/08/21 01:37:17;;;;;;;8.57;4.82;;;;;;;15.34;82.21;101512.84;5223149;28;20030;-70
2022/08/21 01:39:48;;;;;;;8.43;5.22;;;;;;;15.08;82.92;101520.34;5223039;28;20057;-69
2022/08/21 01:42:20;;;;;;;6.67;4.13;;;;;;;15.07;82.47;101520.38;5205828;28;20502;-70
2022/08/21 01:44:52;;;;;;;8.03;4.90;;;;;;;15.01;83.04;101521.38;5222932;28;20109;-70
2022/08/21 01:47:23;;;;;;;7.97;4.45;;;;;;;15.22;82.83;101522.72;5223277;28;20030;-71
2022/08/21 01:49:55;;;;;;;7.43;4.70;;;;;;;14.98;83.09;101518.81;5205512;28;20064;-70
2022/08/21 01:52:28;;;;;;;9.90;5.23;;;;;;;14.87;83.25;101511.13;5222949;28;20044;-70
2022/08/21 01:55:00;;;;;;;11.55;5.30;;;;;;;14.80;83.89;101509.53;5223412;28;20041;-70
2022/08/21 01:57:32;;;;;;;10.45;4.93;;;;;;;15.04;83.39;101512.59;5223107;28;20038;-70
2022/08/21 02:00:10;;;;;;;9.90;5.00;;;;;;;15.08;83.17;101509.00;5222997;28;20030;-70
2022/08/21 02:02:42;;;;;;;7.72;5.05;;;;;;;14.82;83.70;101499.88;5223084;28;20093;-70
2022/08/21 02:05:14;;;;;;;12.57;5.53;;;;;;;14.87;83.76;101505.88;5223260;28;20029;-70
2022/08/21 02:07:49;;;;;;;10.83;5.67;;;;;;;15.04;83.33;101502.09;5222860;28;20079;-70
2022/08/21 02:10:27;;;;;;;7.65;5.22;;;;;;;15.00;83.16;101501.25;5223478;28;20379;-70
2022/08/21 02:13:00;;;;;;;7.28;4.68;;;;;;;14.72;83.50;101495.69;5223606;28;20030;-70
2022/08/21 02:15:31;;;;;;;9.88;5.07;;;;;;;14.88;83.61;101486.63;5223050;28;20423;-70
2022/08/21 02:18:06;;;;;;;11.13;5.20;;;;;;;14.88;83.51;101486.63;5222720;28;20026;-70
2022/08/21 02:20:47;;;;;;;9.00;5.00;;;;;;;14.58;84.24;101488.88;5205792;28;20030;-70
2022/08/21 02:23:19;;;;;;;6.90;4.57;;;;;;;14.57;84.18;101489.81;5222966;28;20482;-70
2022/08/21 02:25:50;;;;;;;11.40;5.27;;;;;;;14.46;84.23;101481.25;5222948;28;20061;-71
2022/08/21 02:28:21;;;;;;;12.23;5.60;;;;;;;14.61;84.11;101481.91;5222487;28;20037;-71
2022/08/21 02:30:54;;;;;;;10.37;5.57;;;;;;;14.54;83.63;101494.25;5222482;28;20030;-71
2022/08/21 02:33:26;;;;;;;9.13;5.57;;;;;;;14.47;84.07;101490.84;5222378;28;20390;-71
2022/08/21 02:35:58;;;;;;;7.88;5.15;;;;;;;14.38;84.75;101491.03;5222514;28;20033;-70
2022/08/21 02:38:33;;;;;;;13.02;5.50;;;;;;;14.26;85.00;101485.97;5204936;28;20038;-71
2022/08/21 02:41:14;;;;;;;7.50;5.15;;;;;;;14.45;84.98;101491.78;5223381;28;20061;-71
2022/08/21 02:43:45;;;;;;;7.32;5.00;;;;;;;14.25;85.13;101484.22;5208817;28;20062;-70
2022/08/21 02:46:19;;;;;;;8.13;4.70;;;;;;;14.48;85.00;101484.72;5224559;28;20466;-71
2022/08/21 02:48:51;;;;;;;8.52;5.40;;;;;;;14.54;84.91;101486.38;5222358;28;20108;-71
2022/08/21 02:51:22;;;;;;;8.33;5.97;;;;;;;14.43;85.32;101483.09;5222333;28;20030;-71
2022/08/21 02:53:54;;;;;;;8.43;5.77;;;;;;;14.47;85.58;101482.97;5222659;28;20158;-71
2022/08/21 02:56:25;;;;;;;17.43;7.50;;;;;;;14.27;86.04;101487.72;5221650;28;20041;-71
2022/08/21 02:58:57;;;;;;;10.43;7.47;;;;;;;14.31;86.24;101485.03;5222014;28;20101;-70
2022/08/21 03:01:28;;;;;;;11.03;8.30;;;;;;;14.35;86.25;101485.84;5221865;28;20096;-70
2022/08/21 03:03:59;;;;;;;14.97;8.70;;;;;;;14.33;86.38;101482.34;5222058;28;20029;-70
2022/08/21 03:06:31;;;;;;;14.30;8.43;;;;;;;14.31;86.72;101485.03;5221897;28;20061;-70
2022/08/21 03:09:03;;;;;;;11.97;8.63;;;;;;;14.22;87.20;101479.94;5221804;28;20037;-70
2022/08/21 03:11:35;;;;;;;12.20;8.17;;;;;;;14.12;86.98;101480.94;5221748;28;20054;-71
2022/08/21 03:14:07;;;;;;;12.35;9.35;;;;;;;14.06;87.54;101481.94;5221747;28;20108;-70
2022/08/21 03:16:38;;;;;;;11.20;8.93;;;;;;;14.16;87.79;101480.88;5222040;28;20037;-70
2022/08/21 03:19:10;;;;;;;11.63;8.37;;;;;;;14.23;87.60;101477.28;5221651;28;20033;-70
2022/08/21 03:21:41;;;;;;;13.27;9.20;;;;;;;14.15;87.49;101470.41;5222087;28;20038;-71
2022/08/21 03:24:13;;;;;;;12.63;9.20;;;;;;;14.10;87.43;101474.88;5221766;28;20036;-71
2022/08/21 03:26:44;;;;;;;11.77;8.23;;;;;;;14.13;87.45;101470.44;5221358;28;20060;-70
2022/08/21 03:29:15;;;;;;;14.77;9.03;;;;;;;13.91;88.24;101477.81;5221125;28;20060;-70
2022/08/21 03:31:47;;;;;;;12.97;8.87;;;;;;;13.94;88.02;101467.28;5221383;28;20113;-73
2022/08/21 03:34:18;;;;;;;14.07;8.60;;;;;;;13.92;88.23;101481.28;5221311;28;20036;-70
2022/08/21 03:36:50;;;;;;;12.70;8.43;;;;;;;13.79;88.30;101476.22;5221291;28;20037;-70
2022/08/21 03:39:21;;;;;;;13.87;8.43;;;;;;;13.75;88.82;101476.28;5221566;28;20505;-70
2022/08/21 03:41:53;;;;;;;10.57;9.13;;;;;;;13.83;89.16;101467.44;5221159;28;20118;-70
2022/08/21 03:44:28;;;;;;;16.02;8.95;;;;;;;13.78;89.26;101469.28;5221089;28;20062;-70
2022/08/21 03:47:00;;;;;;;10.43;8.82;;;;;;;13.75;89.10;101471.94;5221234;28;20105;-70
2022/08/21 03:49:33;;;;;;;16.88;7.57;;;;;;;13.72;89.60;101469.34;5221041;28;20054;-70
2022/08/21 03:52:04;;;;;;;14.63;7.82;;;;;;;13.65;89.70;101457.22;5221698;28;20129;-69
2022/08/21 03:54:36;;;;;;;8.80;7.90;;;;;;;13.55;89.76;101459.09;5221582;28;20117;-71
2022/08/21 03:57:09;;;;;;;15.90;8.40;;;;;;;13.78;89.92;101463.13;5203979;28;20045;-70
2022/08/21 03:59:40;;;;;;;12.48;8.05;;;;;;;13.70;90.08;101465.91;5221345;28;20176;-70
2022/08/21 04:02:15;;;;;;;13.43;8.13;;;;;;;13.70;89.89;101463.28;5221706;28;20468;-70
2022/08/21 04:04:47;;;;;;;12.02;7.65;;;;;;;13.72;89.96;101463.22;5220774;28;20057;-70
2022/08/21 04:07:18;;;;;;;16.33;8.87;;;;;;;13.62;90.01;101466.00;5203267;28;20038;-70
2022/08/21 04:09:49;;;;;;;10.27;8.30;;;;;;;13.70;90.21;101467.63;5221204;28;20038;-69
2022/08/21 04:12:21;;;;;;;12.33;8.60;;;;;;;13.50;90.17;101464.41;5220864;28;20033;-70
2022/08/21 04:14:52;;;;;;;12.27;8.43;;;;;;;13.42;90.64;101466.28;5203137;28;20062;-70
2022/08/21 04:17:24;;;;;;;15.10;9.17;;;;;;;13.59;90.84;101471.28;5220427;28;20076;-70
2022/08/21 04:19:56;;;;;;;11.23;8.00;;;;;;;13.58;90.89;101472.16;5220827;28;20383;-70
2022/08/21 04:22:27;;;;;;;16.10;9.65;;;;;;;13.49;90.97;101478.41;5220742;28;20041;-70
2022/08/21 04:24:58;;;;;;;13.47;8.27;;;;;;;13.40;91.30;101477.66;5220861;28;20065;-70
2022/08/21 04:27:30;;;;;;;13.13;8.57;;;;;;;13.54;91.08;101477.47;5203303;28;20041;-70
2022/08/21 04:30:03;;;;;;;13.93;8.70;;;;;;;13.41;91.04;101480.28;5220569;28;20046;-70
2022/08/21 04:32:38;;;;;;;12.48;7.97;;;;;;;13.47;91.59;101481.94;5220286;28;20036;-71
2022/08/21 04:35:11;;;;;;;13.30;8.30;;;;;;;13.49;91.59;101490.63;5220510;28;20044;-70
2022/08/21 04:37:42;;;;;;;11.98;8.40;;;;;;;13.41;91.39;101482.00;5220305;28;20026;-70
2022/08/21 04:40:16;;;;;;;11.67;7.97;;;;;;;13.47;91.65;101490.63;5220603;28;20045;-70
2022/08/21 04:42:50;;;;;;;13.20;8.80;;;;;;;13.35;91.50;101490.81;5220201;28;20168;-70
2022/08/21 04:45:32;;;;;;;10.88;8.00;;;;;;;13.35;92.08;101490.81;5220348;28;20431;-70
2022/08/21 04:48:06;;;;;;;14.25;8.65;;;;;;;13.35;91.93;101490.81;5220880;28;20427;-70
2022/08/21 04:50:43;;;;;;;14.30;8.40;;;;;;;13.31;92.01;101492.59;5220437;28;20038;-71
2022/08/21 04:53:46;;;;;;;15.90;8.98;;;;;;;13.41;91.90;101496.00;5220874;28;20030;-70
2022/08/21 04:56:31;;;;;;;10.07;7.68;;;;;;;13.34;91.30;101499.56;5220352;28;20030;-71
2022/08/21 04:59:10;;;;;;;15.45;8.13;;;;;;;13.36;91.67;101497.78;5220487;28;20061;-71
2022/08/21 05:01:44;;;;;;;11.93;7.32;;;;;;;13.28;91.72;101495.25;5202724;28;20025;-70
2022/08/21 05:04:21;;;;;;;12.07;7.30;;;;;;;13.31;91.96;101496.94;5220716;28;20059;-70
2022/08/21 05:06:56;;;;;;;17.13;8.25;;;;;;;13.28;91.73;101500.47;5220559;28;20108;-70
2022/08/21 05:09:28;;;;;;;12.27;7.25;;;;;;;13.39;91.91;101502.13;5219991;28;20429;-70
2022/08/21 05:12:02;;;;;;;10.30;7.10;;;;;;;13.37;91.77;101499.50;5220012;28;20034;-70
2022/08/21 05:14:33;;;;;;;14.00;7.28;;;;;;;13.31;91.88;101508.31;5202823;28;20076;-70
2022/08/21 05:17:05;;;;;;;15.50;7.47;;;;;;;13.43;92.13;101507.31;5220023;28;20451;-71
2022/08/21 05:19:36;;;;;;;16.10;7.17;;;;;;;13.40;91.88;101515.19;5223253;28;20371;-70
2022/08/21 05:22:09;;;;;;;11.77;7.03;;;;;;;13.41;91.72;101509.09;5206252;28;20378;-70
2022/08/21 05:24:40;;;;;;;14.13;7.38;;;;;;;13.38;91.36;101518.69;5223811;28;20029;-71
2022/08/21 05:27:11;;;;;;;9.10;6.53;;;;;;;13.42;91.05;101516.03;5223998;28;20034;-70
2022/08/21 05:29:43;;;;;;;16.93;7.67;;;;;;;13.44;91.33;101516.00;5223842;28;20033;-70
2022/08/21 05:32:14;;;;;;;15.23;7.03;;;;;;;13.46;91.67;101520.34;5224134;28;20049;-70
2022/08/21 05:34:46;;;;;;;13.13;6.50;;;;;;;13.49;91.86;101517.69;5206525;28;20088;-70
2022/08/21 05:37:17;;;;;;;17.45;7.00;;;;;;;13.57;91.90;101517.59;5223599;28;20030;-70
2022/08/21 05:39:49;;;;;;;14.47;6.97;;;;;;;13.54;91.58;101515.03;5223867;28;20041;-70
2022/08/21 05:42:20;;;;;;;12.50;6.00;;;;;;;13.59;91.28;101523.69;5223552;28;20042;-70
2022/08/21 05:44:52;;;;;;;12.13;6.07;;;;;;;13.73;91.47;101522.63;5223527;28;20072;-70
2022/08/21 05:47:23;;;;;;;11.37;6.33;;;;;;;13.74;91.05;101514.72;5189510;28;20034;-70
2022/08/21 05:49:54;;;;;;;14.83;6.53;;;;;;;13.81;90.18;101520.75;5223136;28;20491;-70
2022/08/21 05:52:27;;;;;;;11.00;5.88;;;;;;;13.83;90.38;101513.75;5222728;28;20104;-70
2022/08/21 05:54:58;;;;;;;15.03;6.00;;;;;;;13.82;90.15;101512.88;5223132;28;20033;-71
2022/08/21 05:57:30;;;;;;;15.23;6.17;;;;;;;13.94;90.41;101521.44;5222664;28;20034;-71
2022/08/21 06:00:03;;;;;;;11.47;6.40;;;;;;;13.94;90.06;101519.69;5205300;28;20091;-70
2022/08/21 06:02:35;;;;;;;13.30;5.80;;;;;;;14.08;90.18;101521.22;5223101;28;20452;-70
2022/08/21 06:05:07;;;;;;;11.95;5.97;;;;;;;14.08;89.57;101516.00;5222758;28;20062;-70
2022/08/21 06:07:38;;;;;;;16.70;6.20;;;;;;;14.17;89.46;101510.59;5205313;28;20049;-69
2022/08/21 06:10:10;;;;;;;16.80;6.00;;;;;;;14.20;89.32;101524.53;5223266;28;20037;-70
2022/08/21 06:12:42;;;;;;;13.00;5.80;;;;;;;14.25;89.18;101521.84;5204968;28;20026;-70
2022/08/21 06:15:13;;;;;;;17.43;5.63;;;;;;;14.30;89.40;101519.16;5222908;28;20038;-71
2022/08/21 06:17:44;;;;;;;12.53;5.43;;;;;;;14.40;88.89;101531.19;5222804;28;20517;-71
2022/08/21 06:20:16;;;;;;;16.47;6.33;;;;;;;14.39;88.98;101522.47;5222565;28;20117;-70
2022/08/21 06:22:47;;;;;;;14.03;6.03;;;;;;;14.47;88.56;101526.72;5223066;28;20115;-70
2022/08/21 06:25:19;;;;;;;11.17;5.83;;;;;;;14.54;88.17;101526.59;5205577;28;20030;-69
2022/08/21 06:27:51;;;;;;;11.23;5.77;;;;;;;14.65;89.36;101526.44;5222610;28;20034;-69
2022/08/21 06:30:22;;;;;;;12.60;5.90;;;;;;;14.71;88.68;101526.31;5222106;28;20034;-69
2022/08/21 06:32:53;;;;;;;19.83;6.43;;;;;;;14.81;89.08;101523.50;5221960;28;20034;-69
2022/08/21 06:35:25;;;;;;;12.60;5.70;;;;;;;14.91;89.13;101523.31;5222326;28;20037;-69
2022/08/21 06:37:57;;;;;;;11.73;6.23;;;;;;;14.93;87.99;101521.53;5222716;28;20030;-71
2022/08/21 06:40:30;;;;;;;13.68;6.35;;;;;;;15.05;88.66;101530.06;5221884;28;20026;-69
2022/08/21 06:43:10;;;;;;;14.15;5.55;;;;;;;15.14;88.14;101532.50;5222681;28;20387;-70
2022/08/21 06:45:42;;;;;;;11.35;5.20;;;;;;;15.22;88.13;101529.75;5222170;28;20036;-73
2022/08/21 06:48:13;;;;;;;15.63;5.90;;;;;;;15.31;88.17;101537.41;5221724;28;20050;-69
2022/08/21 06:50:45;;;;;;;15.20;5.70;;;;;;;15.45;87.34;101531.88;5222418;28;20046;-68
2022/08/21 06:53:19;;;;;;;15.75;6.32;;;;;;;15.51;86.84;101534.38;5221580;28;20100;-69
2022/08/21 06:55:51;;;;;;;11.63;5.65;;;;;;;15.60;87.49;101534.19;5221933;28;20447;-69
2022/08/21 06:58:22;;;;;;;14.47;5.63;;;;;;;15.74;86.99;101530.38;5221555;28;20034;-70
2022/08/21 07:00:54;;;;;;;12.40;5.60;;;;;;;15.81;87.74;101537.25;5204227;28;20194;-70
2022/08/21 07:03:39;;;;;;;13.45;5.47;;;;;;;15.91;86.15;101528.28;5204486;28;20554;-71
2022/08/21 07:06:11;;;;;;;12.38;6.05;;;;;;;16.00;86.87;101530.69;5221903;28;20022;-69
2022/08/21 07:08:43;;;;;;;16.92;7.38;;;;;;;16.12;86.33;101515.53;5221451;28;20038;-70
2022/08/21 07:11:21;;;;;;;13.60;6.82;;;;;;;16.18;86.25;101517.97;5221636;28;20454;-69
2022/08/21 07:13:54;;;;;;;13.93;5.70;;;;;;;16.33;86.53;101514.13;5221577;28;20111;-70
2022/08/21 07:16:25;;;;;;;16.85;5.70;;;;;;;16.47;85.24;101521.66;5221367;28;20034;-71
2022/08/21 07:18:56;;;;;;;16.77;6.23;;;;;;;16.58;85.01;101530.13;5221525;28;20113;-70
2022/08/21 07:21:28;;;;;;;13.07;5.80;;;;;;;16.67;85.39;101522.00;5221473;28;20387;-70
2022/08/21 07:23:59;;;;;;;12.07;5.60;;;;;;;16.83;85.23;101519.81;5220850;28;20036;-69
2022/08/21 07:26:31;;;;;;;13.73;5.60;;;;;;;16.90;84.59;101525.81;5221497;28;20101;-70
2022/08/21 07:29:02;;;;;;;13.13;6.13;;;;;;;16.92;84.77;101516.09;5222296;28;20034;-69
2022/08/21 07:31:34;;;;;;;16.90;6.28;;;;;;;16.91;84.84;101520.50;5221588;28;20037;-70
2022/08/21 07:34:05;;;;;;;13.40;6.37;;;;;;;16.94;85.00;101522.19;5222003;28;20114;-70
2022/08/21 07:36:37;;;;;;;16.43;5.60;;;;;;;16.99;85.65;101529.97;5204726;28;20018;-70
2022/08/21 07:39:08;;;;;;;13.57;5.57;;;;;;;16.97;85.57;101529.13;5222618;28;20038;-69
2022/08/21 07:41:39;;;;;;;14.90;6.43;;;;;;;17.13;85.10;101525.19;5222688;28;20053;-69
2022/08/21 07:44:11;;;;;;;15.97;6.03;;;;;;;17.26;85.84;101523.94;5221761;28;20033;-69
2022/08/21 07:46:42;;;;;;;13.93;5.40;;;;;;;17.39;84.60;101520.91;5220705;28;20030;-69
2022/08/21 07:49:14;;;;;;;14.77;5.63;;;;;;;17.47;83.80;101532.13;5220323;28;20049;-69
2022/08/21 07:51:45;;;;;;;14.53;5.90;;;;;;;17.55;82.48;101522.19;5203656;28;20116;-69
2022/08/21 07:54:16;;;;;;;16.77;5.70;;;;;;;17.64;82.82;101521.91;5203210;28;20034;-69
2022/08/21 07:56:48;;;;;;;14.83;6.27;;;;;;;17.60;82.95;101522.91;5220896;28;20065;-70
2022/08/21 07:59:19;;;;;;;18.33;6.10;;;;;;;17.58;81.92;101527.38;5220881;28;20038;-70
2022/08/21 08:01:51;;;;;;;14.27;5.60;;;;;;;17.70;82.81;101527.94;5202933;28;20156;-70
2022/08/21 08:04:22;;;;;;;21.23;6.17;;;;;;;17.77;81.68;101518.91;5220180;28;20037;-70
2022/08/21 08:06:54;;;;;;;11.60;4.82;;;;;;;17.86;81.10;101521.25;5220612;28;20033;-70
2022/08/21 08:09:25;;;;;;;15.27;5.17;;;;;;;17.97;80.92;101519.16;5220728;28;20030;-70
2022/08/21 08:11:56;;;;;;;15.40;4.80;;;;;;;18.03;81.24;101518.09;5220424;28;20111;-72
2022/08/21 08:14:28;;;;;;;14.67;4.53;;;;;;;18.16;80.78;101523.84;5220946;28;20064;-71
2022/08/21 08:17:00;;;;;;;17.07;4.97;;;;;;;18.31;80.00;101519.84;5221127;28;20341;-72
2022/08/21 08:19:31;;;;;;;12.45;4.97;;;;;;;18.42;80.38;101523.00;5220806;28;20112;-71
2022/08/21 08:22:12;;;;;;;13.97;5.33;;;;;;;18.48;78.58;101522.78;5220551;28;20037;-73
2022/08/21 08:24:44;;;;;;;14.07;5.40;;;;;;;18.54;78.17;101514.63;5220579;28;20383;-70
2022/08/21 08:27:16;;;;;;;12.23;4.30;;;;;;;18.70;77.80;101524.66;5220180;28;20033;-71
2022/08/21 08:29:48;;;;;;;14.00;4.63;;;;;;;18.80;77.63;101518.13;5220372;28;20175;-68
2022/08/21 08:32:20;;;;;;;14.10;4.57;;;;;;;18.95;77.20;101522.91;5202753;28;20038;-71
2022/08/21 08:34:52;;;;;;;12.70;4.40;;;;;;;19.02;76.41;101518.28;5220790;28;20502;-70
2022/08/21 08:37:23;;;;;;;13.68;4.60;;;;;;;19.09;75.66;101521.53;5220190;28;20034;-70
2022/08/21 08:39:54;;;;;;;10.77;3.97;;;;;;;19.19;75.77;101511.50;5203533;28;20068;-71
2022/08/21 08:42:32;;;;;;;11.80;4.00;;;;;;;19.48;75.00;101510.38;5219926;28;20109;-71
2022/08/21 08:45:09;;;;;;;13.38;4.88;;;;;;;19.61;74.19;101509.00;5220430;28;20026;-70
2022/08/21 08:47:46;;;;;;;14.32;4.22;;;;;;;19.59;73.01;101508.19;5220702;28;20033;-71
2022/08/21 08:50:32;;;;;;;10.25;3.72;;;;;;;19.80;73.56;101506.53;5203096;28;20034;-71
2022/08/21 08:53:09;;;;;;;11.80;4.30;;;;;;;19.80;71.24;101513.59;5220813;28;20061;-71
2022/08/21 08:55:43;;;;;;;9.00;3.15;;;;;;;19.85;72.05;101503.66;5207544;28;20105;-70
2022/08/21 08:58:24;;;;;;;10.52;3.47;;;;;;;19.92;71.53;101505.16;5223761;28;20046;-71
2022/08/21 09:00:57;;;;;;;17.25;4.28;;;;;;;20.16;70.72;101484.75;5206958;28;20086;-70
2022/08/21 09:03:30;;;;;;;12.07;3.53;;;;;;;20.22;69.69;101489.81;5206388;28;20034;-69
2022/08/21 09:06:04;;;;;;;;;;;;;;;20.40;69.88;101484.66;5207112;28;20037;-69
2022/08/21 09:09:08;;;;;;;11.35;4.10;;;;;;;20.49;69.05;101481.59;5223789;28;19935;-69
2022/08/21 09:11:55;;;;;;;15.45;4.72;;;;;;;20.56;68.32;101477.78;5224219;28;20029;-70
2022/08/21 09:15:11;;;;;;;8.98;3.20;;;;;;;20.44;68.27;101488.03;5224450;28;20463;-69
2022/08/21 09:18:10;;;;;;;13.63;3.88;;;;;;;20.32;68.95;101477.03;5213719;28;20092;-71
2022/08/21 09:20:54;;;;;;;11.52;3.47;;;;;;;20.39;68.48;101481.13;5224085;28;20037;-70
2022/08/21 09:24:02;;;;;;;10.98;3.25;;;;;;;20.46;68.53;101484.38;5224536;28;20422;-70
2022/08/21 09:26:47;;;;;;;8.95;2.70;;;;;;;20.34;66.81;101485.78;5223751;28;20029;-71
2022/08/21 09:29:24;;;;;;;11.65;3.35;;;;;;;20.18;66.34;101482.91;5206269;28;20084;-71
2022/08/21 09:31:56;;;;;;;8.55;3.30;;;;;;;19.96;67.63;101488.22;5206235;28;20026;-73
2022/08/21 09:34:31;;;;;;;14.67;3.67;;;;;;;20.08;69.18;101481.59;5223940;28;20490;-71
2022/08/21 09:37:02;;;;;;;9.70;3.00;;;;;;;20.35;66.60;101478.69;5223765;28;20498;-72
2022/08/21 09:39:39;;;;;;;13.43;3.57;;;;;;;20.44;64.22;101495.97;5223428;28;20025;-72
2022/08/21 09:42:11;;;;;;;10.45;2.65;;;;;;;20.55;62.38;101494.56;5206167;28;20034;-70
2022/08/21 09:44:43;;;;;;;7.35;2.40;;;;;;;20.86;61.65;101492.41;5223301;28;20428;-70
2022/08/21 09:47:19;;;;;;;6.88;2.42;;;;;;;21.21;60.74;101493.44;5206467;28;20068;-70
2022/08/21 09:49:50;;;;;;;9.48;2.80;;;;;;;21.30;59.92;101498.34;5223771;28;20491;-71
2022/08/21 09:52:24;;;;;;;7.43;2.70;;;;;;;21.59;60.63;101489.94;5223276;28;20034;-71
2022/08/21 09:54:56;;;;;;;7.65;2.38;;;;;;;21.68;59.76;101485.06;5223152;28;20472;-71
2022/08/21 09:57:39;;;;;;;7.05;2.72;;;;;;;21.87;59.03;101478.00;5223050;28;20029;-70
2022/08/21 10:00:29;;;;;;;13.68;2.95;;;;;;;22.22;59.66;101481.56;5223147;28;20037;-70
2022/08/21 10:03:09;;;;;;;10.93;3.33;;;;;;;21.87;56.87;101486.81;5223284;28;20041;-72
2022/08/21 10:05:51;;;;;;;6.93;2.30;;;;;;;22.26;57.05;101484.91;5222578;28;20034;-70
2022/08/21 10:08:26;;;;;;;8.30;2.33;;;;;;;22.61;57.94;101476.97;5222719;28;20029;-70
2022/08/21 10:11:05;;;;;;;8.02;3.00;;;;;;;22.71;54.51;101479.03;5222812;28;20101;-69
2022/08/21 10:14:02;;;;;;;6.90;2.28;;;;;;;23.24;53.03;101479.78;5222742;28;20107;-70
2022/08/21 10:17:00;;;;;;;8.23;2.88;;;;;;;23.21;53.02;101477.28;5206688;28;20049;-71
2022/08/21 10:19:53;;;;;;;6.63;2.25;;;;;;;23.30;53.12;101479.44;5216819;28;20048;-70
2022/08/21 10:22:24;;;;;;;;;;;;;;;23.96;52.55;101477.53;5222875;28;20038;-70
2022/08/21 10:25:06;;;;;;;8.63;3.07;;;;;;;23.07;52.33;101491.34;5222721;28;19913;-70
2022/08/21 10:28:08;;;;;;;8.23;2.97;;;;;;;22.56;54.40;101485.16;5222841;28;20451;-70
2022/08/21 10:30:51;;;;;;;8.82;3.13;;;;;;;22.18;54.94;101475.53;5222613;28;20125;-69
2022/08/21 10:33:52;;;;;;;7.78;3.15;;;;;;;22.29;54.61;101488.28;5222347;28;20374;-70
2022/08/21 10:36:47;;;;;;;5.30;2.45;;;;;;;22.82;53.04;101477.63;5219769;28;20125;-71
2022/08/21 10:39:34;;;;;;;8.23;2.58;;;;;;;22.72;53.96;101470.13;5221902;28;20029;-70
2022/08/21 10:42:24;;;;;;;8.40;2.78;;;;;;;23.04;57.24;101483.50;5222222;28;20046;-70
2022/08/21 10:45:20;;;;;;;12.65;3.92;;;;;;;23.30;53.49;101474.13;5221954;28;20033;-70
2022/08/21 10:48:00;;;;;;;8.98;3.33;;;;;;;23.38;51.19;101489.66;5204636;28;20444;-70
2022/08/21 10:50:31;;;;;;;7.50;2.85;;;;;;;23.70;50.73;101486.09;5221942;28;20057;-70
2022/08/21 10:53:08;;;;;;;7.20;2.83;;;;;;;24.04;54.08;101477.09;5204128;28;20029;-70
2022/08/21 10:56:19;;;;;;;9.48;2.83;;;;;;;24.17;53.03;101472.75;5222256;28;20030;-70
2022/08/21 10:59:09;;;;;;;9.45;3.13;;;;;;;23.66;49.82;101467.66;5221120;28;20034;-70
2022/08/21 11:02:09;;;;;;;6.68;2.90;;;;;;;23.49;49.76;101470.44;5222147;28;20034;-69
2022/08/21 11:04:53;;;;;;;6.05;2.47;;;;;;;23.20;50.05;101467.59;5217574;28;20096;-70
2022/08/21 11:07:58;;;;;;;9.10;2.78;;;;;;;23.19;51.88;101470.34;5221638;28;20040;-71
2022/08/21 11:10:53;;;;;;;8.05;3.03;;;;;;;23.33;53.41;101474.88;5221436;28;20077;-70
2022/08/21 11:13:30;;;;;;;10.32;3.22;;;;;;;23.65;50.31;101470.41;5220949;28;20034;-70
2022/08/21 11:16:23;;;;;;;10.43;3.53;;;;;;;24.82;49.09;101473.34;5202225;28;20042;-70
2022/08/21 11:19:20;;;;;;;8.23;3.05;;;;;;;25.80;47.49;101474.22;5221217;28;20464;-70
2022/08/21 11:22:07;;;;;;;9.90;3.20;;;;;;;25.66;46.52;101459.09;5220539;28;20030;-70
2022/08/21 11:25:21;;;;;;;10.10;3.72;;;;;;;26.08;43.25;101475.06;5221478;28;20116;-71
2022/08/21 11:28:00;;;;;;;8.55;2.80;;;;;;;25.67;42.94;101471.50;5200792;28;20042;-72
2022/08/21 11:30:41;;;;;;;8.75;3.22;;;;;;;25.58;45.21;101464.97;5220836;28;20033;-71
2022/08/21 11:33:15;;;;;;;9.45;3.15;;;;;;;25.94;46.43;101458.13;5220782;28;20088;-69
2022/08/21 11:36:15;;;;;;;9.00;2.75;;;;;;;26.01;41.82;101461.28;5220639;28;20099;-69
2022/08/21 11:39:01;;;;;;;4.15;2.40;;;;;;;26.05;43.29;101454.78;5204452;28;20046;-70
2022/08/21 11:41:43;;;;;;;7.88;2.97;;;;;;;26.91;41.04;101459.50;5203466;28;20030;-70
2022/08/21 11:44:27;;;;;;;9.40;2.72;;;;;;;27.01;40.09;101462.38;5220443;28;20044;-70
2022/08/21 11:47:25;;;;;;;7.45;2.90;;;;;;;27.22;42.25;101459.13;5220393;28;20440;-71
2022/08/21 11:50:13;;;;;;;7.32;2.45;;;;;;;26.88;39.01;101470.44;5221458;28;20053;-70
2022/08/21 11:53:02;;;;;;;6.05;2.40;;;;;;;27.32;38.49;101467.38;5220839;28;20110;-70
2022/08/21 11:55:36;;;;;;;7.15;2.70;;;;;;;26.92;37.33;101466.59;5220890;28;20360;-71
2022/08/21 11:58:17;;;;;;;10.05;2.80;;;;;;;26.69;37.94;101468.19;5220506;28;20030;-71